Kinney, Minnesota
Current Conditions -  °F | °C
As of 10:53 PM on Saturday 22 Nov 2014 (Local Time) from KHIB Reporting Station
Haze Haze  
Wind Chill: 25°   Ceiling: 500
Heat Index: 33°   Visibility: 6mi
Dew Point: 30°   Wind: 10mph
Humidity: 89%   Direction: 160°SSE
Pressure: 29.49"   Gusts: NA
Location:  47.51°N, 92.73°W
Report Text: KHIB 230453Z AUTO 16009KT 6SM BR OVC005 01/M01 A2949 RMK AO2 SLP005 T00061011
Loading
Personal Weather Stations






























Interactive Weather Map New forecast layout! Learn more

10-Day Weather Forecast

Advertisements
Track Severe Weather on mobile